WetterOnline ( https://www.wetteronline.de )

Wetter aktuell Günzburg

Aktuelles Wetter: Ulm-Mähringen (592m)

6-stündlich | Neueste Meldungen
Ortszeit Temperatur Wetter
Mo, 13.04. 14:00 10.0° C bedeckt
Mo, 13.04. 8:00 6.3° C Sprühregen
Mo, 13.04. 2:00 6.0° C bedeckt
So, 12.04. 20:00 6.3° C bedeckt
So, 12.04. 14:00 6.5° C leichter Regen
So, 12.04. 8:00 9.4° C leichter Regen
So, 12.04. 2:00 9.6° C wolkig
Sa, 11.04. 20:00 16.2° C wolkig
Ortszeit Temperatur Wetter
Mo, 13.04. 19:00 7.9° C leichter Regen
Mo, 13.04. 18:50 7.9° C leichter Regen
Mo, 13.04. 18:40 7.9° C leichter Regen
Mo, 13.04. 18:30 8.1° C leichter Regen
Mo, 13.04. 18:20 8.1° C leichter Regen
Mo, 13.04. 18:10 8.0° C leichter Regen
Mo, 13.04. 18:00 8.0° C leichter Regen
Mo, 13.04. 17:30 8.4° C leichter Regen
Mo, 13.04. 17:00 9.0° C leichter Regen
Mo, 13.04. 16:30 9.5° C bedeckt
Mo, 13.04. 16:00 10.1° C bedeckt
Ortszeit Relative Feuchte Sichtweite
Mo, 13.04. 14:00 78% 17 km
Mo, 13.04. 8:00 97% 0.5 km
Mo, 13.04. 2:00 95% 9 km
So, 12.04. 20:00 91% 35 km
So, 12.04. 14:00 88% 30 km
So, 12.04. 8:00 91% 11 km
So, 12.04. 2:00 87% 19 km
Sa, 11.04. 20:00 56% 45 km
Ortszeit Relative Feuchte Sichtweite
Mo, 13.04. 19:00 93% 7 km
Mo, 13.04. 18:50 93% -
Mo, 13.04. 18:40 93% -
Mo, 13.04. 18:30 93% 7 km
Mo, 13.04. 18:20 93% -
Mo, 13.04. 18:10 94% -
Mo, 13.04. 18:00 93% 7 km
Mo, 13.04. 17:30 92% 9 km
Mo, 13.04. 17:00 88% 11 km
Mo, 13.04. 16:30 86% 13 km
Mo, 13.04. 16:00 83% 15 km
Ortszeit Niederschlagsmenge Niederschlagsart
Mo, 13.04. 14:00 0.3 l/m2 in 6 Std. Regen
Mo, 13.04. 8:00 0.1 l/m2 in 12 Std. Sprühregen
Mo, 13.04. 2:00 0.1 l/m2 in 6 Std. Sprühregen
So, 12.04. 20:00 1 l/m2 in 12 Std. Regen
So, 12.04. 14:00 0.5 l/m2 in 6 Std. Regen
So, 12.04. 8:00 1 l/m2 in 12 Std. Regen
So, 12.04. 2:00 0.1 l/m2 in 6 Std. Regen
Sa, 11.04. 20:00 0.0 l/m2 in 12 Std. -
Ortszeit Niederschlagsmenge Niederschlagsart
Mo, 13.04. 19:00 0.3 l/m2 in 1 Std. Regen
Mo, 13.04. 18:50 keine Meldung -
Mo, 13.04. 18:40 keine Meldung -
Mo, 13.04. 18:30 0.2 l/m2 in 30 Min -
Mo, 13.04. 18:20 keine Meldung -
Mo, 13.04. 18:10 keine Meldung -
Mo, 13.04. 18:00 0.1 l/m2 in 1 Std. Regen
Mo, 13.04. 17:30 0.1 l/m2 in 30 Min -
Mo, 13.04. 17:00 <0.05 l/m2 in 1 Std. Regen
Mo, 13.04. 16:30 0.0 l/m2 in 30 Min -
Mo, 13.04. 16:00 0.0 l/m2 in 1 Std. -
Ortszeit Stärke Spitze Richtung
km/h Bft. km/h Grad Sektor
Mo, 13.04. 14:00 7 2 14 330° NW
Mo, 13.04. 8:00 11 2 18 30° NO
Mo, 13.04. 2:00 7 2 18 20° N
So, 12.04. 20:00 13 3 24 350° N
So, 12.04. 14:00 11 2 32 340° N
So, 12.04. 8:00 4 1 32 300° NW
So, 12.04. 2:00 6 1 17 310° NW
Sa, 11.04. 20:00 7 2 22 170° S
Ortszeit Stärke Spitze Richtung
km/h Bft. km/h Grad Sektor
Mo, 13.04. 19:00 14 3 25 330° NW
Mo, 13.04. 18:50 14 3 - 330° NW
Mo, 13.04. 18:40 14 3 - 330° NW
Mo, 13.04. 18:30 15 3 24 330° NW
Mo, 13.04. 18:20 15 3 - 330° NW
Mo, 13.04. 18:10 17 3 - 330° NW
Mo, 13.04. 18:00 14 3 25 330° NW
Mo, 13.04. 17:30 17 3 24 330° NW
Mo, 13.04. 17:00 14 3 22 330° NW
Mo, 13.04. 16:30 14 3 22 330° NW
Mo, 13.04. 16:00 14 3 18 350° N
Ortszeit Untergrenze Bedeckung Gattung
total tief tief mittel hoch
Mo, 13.04. 14:00 480 m 8/8 8/8 - - -
Mo, 13.04. 8:00 30 m 8/8 8/8 - - -
Mo, 13.04. 2:00 90 m 8/8 8/8 - - -
So, 12.04. 20:00 240 m 8/8 8/8 - - -
So, 12.04. 14:00 240 m 8/8 8/8 - - -
So, 12.04. 8:00 300 m 7/8 7/8 - - -
So, 12.04. 2:00 3000 m 6/8 6/8 - - -
Sa, 11.04. 20:00 2100 m 8/8 1/8 - - -
Ortszeit Bedeckungsgrad in Achtel und Wolkenuntergrenze
Mo, 13.04. 19:00 8(150m)
Mo, 13.04. 18:50 8(150m)
Mo, 13.04. 18:40 7(/////////)
Mo, 13.04. 18:30 7(150m)
Mo, 13.04. 18:20 7(150m)
Mo, 13.04. 18:10 8(/////////)
Mo, 13.04. 18:00 8(150m)
Mo, 13.04. 17:30 7(210m) 8(480m)
Mo, 13.04. 17:00 4(240m) 7(420m) 8(540m)
Mo, 13.04. 16:30 7(360m) 8(510m)
Mo, 13.04. 16:00 8(420m)
Ortszeit Luftdruck NN (hPa) Tendenz (hPa in 3 Std.)
Mo, 13.04. 14:00 1009 - 0,4
Mo, 13.04. 8:00 1010 - 0,6
Mo, 13.04. 2:00 1013 - 1,8
So, 12.04. 20:00 1015 - 0,5
So, 12.04. 14:00 1017 - 0,3
So, 12.04. 8:00 1015 + 1,0
So, 12.04. 2:00 1013 + 0,5
Sa, 11.04. 20:00 1011 - 0,3
Ortszeit Luftdruck NN (hPa) Tendenz (hPa in 3 Std.)
Mo, 13.04. 19:00 1011 + 0,8
Mo, 13.04. 18:50 1011 keine Meldung
Mo, 13.04. 18:40 1010 keine Meldung
Mo, 13.04. 18:30 1010 + 0,6
Mo, 13.04. 18:20 1010 keine Meldung
Mo, 13.04. 18:10 1010 keine Meldung
Mo, 13.04. 18:00 1010 + 0,7
Mo, 13.04. 17:30 1010 + 0,5
Mo, 13.04. 17:00 1010 + 0,4
Mo, 13.04. 16:30 1009 + 0,4
Mo, 13.04. 16:00 1009 + 0,1
Ortszeit Schneehöhe (cm)
Mo, 13.04. 14:00 0
Mo, 13.04. 8:00 0
Mo, 13.04. 2:00 0
So, 12.04. 20:00 0
So, 12.04. 14:00 0
So, 12.04. 8:00 0
So, 12.04. 2:00 0
Sa, 11.04. 20:00 0
Ortszeit Schneehöhe (cm)
Mo, 13.04. 19:00 0
Mo, 13.04. 18:50 0
Mo, 13.04. 18:40 -
Mo, 13.04. 18:30 0
Mo, 13.04. 18:20 0
Mo, 13.04. 18:10 -
Mo, 13.04. 18:00 0
Mo, 13.04. 17:30 0
Mo, 13.04. 17:00 0
Mo, 13.04. 16:30 0
Mo, 13.04. 16:00 0
Link zu dieser Seite / Seite empfehlen

Das Wetter in ...